createdAt,value
2022-09-24T00:01:36.594Z,158094.69
2022-09-24T00:04:07.366Z,158058.78
2022-09-24T00:06:41.924Z,158040.16
2022-09-24T00:09:11.514Z,158036.16
2022-09-24T00:11:40.799Z,158030.88
2022-09-24T00:14:08.722Z,158022.84
2022-09-24T00:16:37.178Z,158001.56
2022-09-24T00:19:06.607Z,157990.97
2022-09-24T00:21:36.449Z,157978.97
2022-09-24T00:24:07.472Z,157975.00
2022-09-24T00:26:54.564Z,157957.69
2022-09-24T00:29:25.219Z,157947.09
2022-09-24T00:31:54.616Z,157936.44
2022-09-24T00:34:22.539Z,157924.44
2022-09-24T00:36:50.941Z,157913.84
2022-09-24T00:39:19.534Z,157897.91
2022-09-24T00:41:49.805Z,157876.63
2022-09-24T00:44:51.440Z,157877.97
2022-09-24T00:47:40.701Z,157879.28
2022-09-24T00:50:29.199Z,157880.59
2022-09-24T00:52:58.717Z,157861.97
2022-09-24T00:55:27.839Z,157842.06
2022-09-24T00:58:01.179Z,157826.09
2022-09-24T01:00:30.754Z,157814.16
2022-09-24T01:03:14.012Z,157804.81
2022-09-24T01:05:41.905Z,157796.84
2022-09-24T01:08:18.009Z,157788.91
2022-09-24T01:11:10.564Z,157782.25
2022-09-24T01:14:06.796Z,157778.28
2022-09-24T01:16:41.191Z,157751.69
2022-09-24T01:19:40.301Z,157771.63
2022-09-24T01:22:37.810Z,157772.97
2022-09-24T01:25:43.703Z,157755.66
2022-09-24T01:28:50.758Z,157747.69
2022-09-24T01:31:48.364Z,157739.72
2022-09-24T01:34:21.261Z,157729.13
2022-09-24T01:36:50.883Z,157719.78
2022-09-24T01:39:19.780Z,157711.81
2022-09-24T01:41:48.260Z,157690.56
2022-09-24T01:44:19.056Z,157670.63
2022-09-24T01:46:47.544Z,157675.97
2022-09-24T01:49:15.933Z,157669.31
2022-09-24T01:51:59.574Z,157653.38
2022-09-24T01:54:31.480Z,157653.38
2022-09-24T01:57:22.505Z,157640.09
2022-09-24T02:00:00.855Z,157640.09
2022-09-24T02:02:38.155Z,157628.13
2022-09-24T02:05:19.789Z,157602.94
2022-09-24T02:07:51.379Z,157601.56
2022-09-24T02:10:21.280Z,157598.91
2022-09-24T02:12:54.535Z,157577.66
2022-09-24T02:15:32.550Z,157568.38
2022-09-24T02:18:05.431Z,157572.34
2022-09-24T02:20:36.174Z,157560.38
2022-09-24T02:23:05.025Z,157552.41
2022-09-24T02:25:42.567Z,157540.50
2022-09-24T02:28:10.911Z,157539.13
2022-09-24T02:30:42.560Z,157536.50
2022-09-24T02:33:32.979Z,157533.84
2022-09-24T02:36:01.509Z,157525.91
2022-09-24T02:38:29.542Z,157513.94
2022-09-24T02:40:57.450Z,157483.34
2022-09-24T02:43:26.143Z,157494.00
2022-09-24T02:45:54.809Z,157499.31
2022-09-24T02:48:22.299Z,157495.31
2022-09-24T02:50:51.012Z,157476.75
2022-09-24T02:53:19.496Z,157483.34
2022-09-24T02:55:48.243Z,157475.41
2022-09-24T02:58:16.685Z,157463.47
2022-09-24T03:00:44.345Z,157462.13
2022-09-24T03:03:12.178Z,157455.53
2022-09-24T03:05:39.953Z,157454.16
2022-09-24T03:08:08.364Z,157456.84
2022-09-24T03:10:36.224Z,157434.22
2022-09-24T03:13:05.224Z,157436.91
2022-09-24T03:15:33.133Z,157432.91
2022-09-24T03:18:00.967Z,157423.63
2022-09-24T03:20:28.933Z,157407.72
2022-09-24T03:22:57.145Z,157414.38
2022-09-24T03:25:25.780Z,157413.00
2022-09-24T03:27:54.274Z,157414.38
2022-09-24T03:30:40.878Z,157402.41
2022-09-24T03:33:09.130Z,157395.75
2022-09-24T03:35:36.901Z,157390.44
2022-09-24T03:38:05.845Z,157402.41
2022-09-24T03:40:34.644Z,157389.13
2022-09-24T03:43:04.374Z,157387.81
2022-09-24T03:45:32.014Z,157346.66
2022-09-24T03:48:00.298Z,157355.94
2022-09-24T03:50:27.981Z,157350.66
2022-09-24T03:52:56.145Z,157349.28
2022-09-24T03:55:24.217Z,157351.97
2022-09-24T03:57:52.508Z,157334.69
2022-09-24T04:00:20.506Z,157317.47
2022-09-24T04:02:50.229Z,157329.41
2022-09-24T04:05:18.414Z,157326.75
2022-09-24T04:07:46.120Z,157310.81
2022-09-24T04:10:13.953Z,157310.81
2022-09-24T04:12:43.804Z,157314.78
2022-09-24T04:15:12.081Z,157309.50
2022-09-24T04:17:40.853Z,157310.81
2022-09-24T04:20:09.611Z,157306.81
2022-09-24T04:22:38.060Z,157302.88
2022-09-24T04:25:09.217Z,157300.19
2022-09-24T04:27:41.551Z,157308.13
2022-09-24T04:30:10.877Z,157286.91
2022-09-24T04:32:39.475Z,157300.19
2022-09-24T04:35:08.525Z,157305.50
2022-09-24T04:37:38.305Z,157312.13
2022-09-24T04:40:13.354Z,157312.13
2022-09-24T04:42:42.119Z,157321.41
2022-09-24T04:45:11.121Z,157330.75
2022-09-24T04:47:40.625Z,157344.00
2022-09-24T04:50:12.051Z,157365.25
2022-09-24T04:52:40.462Z,157369.19
2022-09-24T04:55:08.638Z,157387.81
2022-09-24T04:57:37.163Z,157398.41
2022-09-24T05:00:08.879Z,157419.63
2022-09-24T05:02:37.423Z,157436.91
2022-09-24T05:05:06.119Z,157459.47
2022-09-24T05:07:34.383Z,157478.09
2022-09-24T05:10:02.920Z,157513.94
2022-09-24T05:12:31.785Z,157537.81
2022-09-24T05:14:59.762Z,157565.69
2022-09-24T05:17:27.382Z,157594.91
2022-09-24T05:19:57.999Z,157622.81
2022-09-24T05:22:28.159Z,157658.66
2022-09-24T05:24:56.183Z,157646.75
2022-09-24T05:27:24.667Z,157679.97
2022-09-24T05:29:52.725Z,157706.50
2022-09-24T05:32:21.117Z,157742.38
2022-09-24T05:34:49.669Z,157776.91
2022-09-24T05:37:18.307Z,157815.47
2022-09-24T05:39:46.818Z,157848.72
2022-09-24T05:42:15.475Z,157905.88
2022-09-24T05:44:47.385Z,157947.09
2022-09-24T05:47:19.544Z,157993.59
2022-09-24T05:49:47.355Z,158026.84
2022-09-24T05:52:15.730Z,158089.38
2022-09-24T05:54:43.571Z,158147.94
2022-09-24T05:57:15.994Z,158195.84
2022-09-24T05:59:43.874Z,158225.09
2022-09-24T06:02:12.258Z,158280.97
2022-09-24T06:04:40.847Z,158316.91
2022-09-24T06:07:08.596Z,158382.16
2022-09-24T06:09:38.209Z,158509.97
2022-09-24T06:12:11.487Z,158568.56
2022-09-24T06:14:43.084Z,158667.13
2022-09-24T06:17:11.791Z,158816.38
2022-09-24T06:19:39.754Z,158941.69
2022-09-24T06:22:08.105Z,159059.06
2022-09-24T06:24:35.916Z,159135.09
2022-09-24T06:27:04.543Z,159136.41
2022-09-24T06:29:33.595Z,159104.38
2022-09-24T06:32:02.614Z,159107.06
2022-09-24T06:34:30.675Z,159105.69
2022-09-24T06:36:59.091Z,159157.75
2022-09-24T06:39:29.057Z,159247.16
2022-09-24T06:41:59.319Z,159300.53
2022-09-24T06:44:35.550Z,159333.94
2022-09-24T06:47:04.213Z,159323.22
2022-09-24T06:49:34.343Z,159288.53
2022-09-24T06:52:02.866Z,159265.81
2022-09-24T06:54:31.117Z,159239.09
2022-09-24T06:56:58.848Z,159235.13
2022-09-24T06:59:27.304Z,159267.13
2022-09-24T07:01:56.113Z,159255.16
2022-09-24T07:04:24.554Z,159264.47
2022-09-24T07:07:10.189Z,159299.22
2022-09-24T07:09:40.870Z,159309.88
2022-09-24T07:12:09.029Z,159384.63
2022-09-24T07:14:36.693Z,159428.66
2022-09-24T07:17:05.209Z,159459.41
2022-09-24T07:19:33.285Z,159502.13
2022-09-24T07:22:01.474Z,159520.78
2022-09-24T07:24:29.436Z,159544.84
2022-09-24T07:26:57.785Z,159610.25
2022-09-24T07:29:25.788Z,159695.78
2022-09-24T07:31:54.041Z,159750.59
2022-09-24T07:34:21.911Z,159771.94
2022-09-24T07:36:50.250Z,159905.59
2022-09-24T07:39:19.019Z,159977.75
2022-09-24T07:41:47.761Z,160031.25
2022-09-24T07:44:16.128Z,160000.47
2022-09-24T07:46:44.076Z,160090.13
2022-09-24T07:49:11.806Z,160162.31
2022-09-24T07:51:39.396Z,160193.13
2022-09-24T07:54:07.794Z,160140.91
2022-09-24T07:56:35.572Z,160202.47
2022-09-24T07:59:06.973Z,160264.00
2022-09-24T08:01:35.539Z,160297.41
2022-09-24T08:04:05.192Z,160353.59
2022-09-24T08:06:39.579Z,160396.47
2022-09-24T08:09:09.631Z,160478.13
2022-09-24T08:11:38.066Z,160456.72
2022-09-24T08:14:06.932Z,160411.25
2022-09-24T08:16:35.283Z,160436.63
2022-09-24T08:19:03.810Z,160491.53
2022-09-24T08:21:32.560Z,160531.69
2022-09-24T08:24:01.348Z,160546.41
2022-09-24T08:26:29.368Z,160628.06
2022-09-24T08:28:58.877Z,160681.63
2022-09-24T08:31:27.773Z,160780.78
2022-09-24T08:33:56.046Z,160804.88
2022-09-24T08:36:24.001Z,160786.16
2022-09-24T08:38:57.630Z,160778.09
2022-09-24T08:41:51.113Z,160735.22
2022-09-24T08:44:57.701Z,160716.50
2022-09-24T08:47:51.158Z,160748.63
2022-09-24T08:50:28.552Z,160729.91
2022-09-24T08:53:06.784Z,160695.09
2022-09-24T08:56:04.823Z,160745.97
2022-09-24T08:58:47.200Z,160796.84
2022-09-24T09:01:25.295Z,160802.22
2022-09-24T09:03:57.579Z,160800.91
2022-09-24T09:06:50.125Z,160803.56
2022-09-24T09:09:34.351Z,160666.91
2022-09-24T09:12:06.511Z,160689.72
2022-09-24T09:14:50.007Z,160740.59
2022-09-24T09:17:25.821Z,160729.91
2022-09-24T09:20:02.074Z,160622.69
2022-09-24T09:22:35.608Z,160624.06
2022-09-24T09:25:26.100Z,160670.91
2022-09-24T09:28:03.314Z,160735.22
2022-09-24T09:30:39.920Z,160681.63
2022-09-24T09:33:20.511Z,160697.75
2022-09-24T09:36:26.318Z,160732.56
2022-09-24T09:39:14.047Z,160764.72
2022-09-24T09:41:52.560Z,160810.25
2022-09-24T09:44:26.868Z,160837.06
2022-09-24T09:47:04.634Z,160867.84
2022-09-24T09:49:38.061Z,160862.47
2022-09-24T09:52:15.863Z,160747.28
2022-09-24T09:54:44.433Z,160764.72
2022-09-24T09:57:17.979Z,160818.28
2022-09-24T09:59:49.587Z,160849.06
2022-09-24T10:02:32.511Z,160760.69
2022-09-24T10:05:04.057Z,160736.59
2022-09-24T10:07:33.084Z,160794.19
2022-09-24T10:10:24.366Z,160835.72
2022-09-24T10:13:09.307Z,160800.91
2022-09-24T10:15:56.451Z,160770.06
2022-09-24T10:18:32.959Z,160729.91
2022-09-24T10:21:04.209Z,160724.53
2022-09-24T10:23:38.566Z,160719.16
2022-09-24T10:26:07.337Z,160723.22
2022-09-24T10:28:59.110Z,160707.09
2022-09-24T10:31:31.181Z,160618.69
2022-09-24T10:34:00.408Z,160661.53
2022-09-24T10:36:34.847Z,160719.16
2022-09-24T10:39:04.787Z,160713.81
2022-09-24T10:41:33.268Z,160700.41
2022-09-24T10:44:11.918Z,160674.94
2022-09-24T10:46:49.434Z,160673.59
2022-09-24T10:49:42.532Z,160646.81
2022-09-24T10:52:22.875Z,160662.88
2022-09-24T10:54:57.317Z,160678.94
2022-09-24T10:57:32.101Z,160645.50
2022-09-24T11:00:21.173Z,160660.22
2022-09-24T11:03:20.276Z,160684.28
2022-09-24T11:06:39.194Z,160688.38
2022-09-24T11:09:16.023Z,160641.44
2022-09-24T11:11:49.223Z,160661.53
2022-09-24T11:14:31.629Z,160636.09
2022-09-24T11:17:30.613Z,160638.78
2022-09-24T11:20:17.314Z,160577.19
2022-09-24T11:23:17.346Z,160578.50
2022-09-24T11:26:01.424Z,160574.53
2022-09-24T11:28:50.873Z,160575.88
2022-09-24T11:31:49.158Z,160575.88
2022-09-24T11:34:38.143Z,160577.19
2022-09-24T11:37:21.638Z,160645.50
2022-09-24T11:40:22.136Z,160700.41
2022-09-24T11:43:02.968Z,160657.50
2022-09-24T11:45:48.247Z,160617.38
2022-09-24T11:48:38.982Z,160591.91
2022-09-24T11:51:19.337Z,160539.72
2022-09-24T11:54:14.674Z,160529.00
2022-09-24T11:56:47.843Z,160527.66
2022-09-24T11:59:46.109Z,160550.41
2022-09-24T12:02:26.938Z,160569.16
2022-09-24T12:05:00.284Z,160625.41
2022-09-24T12:07:33.917Z,160606.63
2022-09-24T12:10:32.878Z,160612.00
2022-09-24T12:13:39.933Z,160634.75
2022-09-24T12:16:17.388Z,160695.09
2022-09-24T12:19:04.828Z,160737.94
2022-09-24T12:21:35.494Z,160810.25
2022-09-24T12:24:19.669Z,160908.06
2022-09-24T12:26:48.434Z,160922.78
2022-09-24T12:29:59.965Z,160956.31
2022-09-24T12:32:56.354Z,160968.34
2022-09-24T12:35:49.847Z,160971.09
2022-09-24T12:38:19.297Z,161003.22
2022-09-24T12:41:18.432Z,160979.13
2022-09-24T12:43:53.691Z,160988.50
2022-09-24T12:46:24.623Z,160981.78
2022-09-24T12:48:53.236Z,160996.53
2022-09-24T12:51:22.955Z,161016.63
2022-09-24T12:54:05.687Z,161024.66
2022-09-24T12:56:35.139Z,161013.97
2022-09-24T12:59:05.824Z,161013.97
2022-09-24T13:01:34.899Z,161020.69
2022-09-24T13:04:25.419Z,160945.56
2022-09-24T13:06:54.049Z,160928.16
2022-09-24T13:09:37.683Z,160906.72
2022-09-24T13:12:30.454Z,160902.69
2022-09-24T13:15:04.959Z,160893.31
2022-09-24T13:17:35.100Z,160887.94
2022-09-24T13:20:09.030Z,160858.47
2022-09-24T13:22:38.210Z,160830.34
2022-09-24T13:25:27.050Z,160818.28
2022-09-24T13:28:01.730Z,160808.94
2022-09-24T13:30:29.503Z,160799.50
2022-09-24T13:33:00.842Z,160804.88
2022-09-24T13:35:35.056Z,160766.06
2022-09-24T13:38:13.762Z,160762.03
2022-09-24T13:40:49.554Z,160787.50
2022-09-24T13:43:28.837Z,160774.09
2022-09-24T13:45:58.649Z,160767.41
2022-09-24T13:48:42.784Z,160716.50
2022-09-24T13:51:15.297Z,160721.81
2022-09-24T13:53:53.661Z,160724.53
2022-09-24T13:56:21.908Z,160699.06
2022-09-24T13:58:51.928Z,160711.13
2022-09-24T14:01:25.024Z,160693.75
2022-09-24T14:03:59.016Z,160638.78
2022-09-24T14:06:38.834Z,160636.09
2022-09-24T14:09:25.782Z,160618.69
2022-09-24T14:11:57.320Z,160624.06
2022-09-24T14:14:29.240Z,160598.59
2022-09-24T14:17:14.377Z,160594.56
2022-09-24T14:19:43.650Z,160550.41
2022-09-24T14:22:39.471Z,160575.88
2022-09-24T14:25:11.050Z,160558.44
2022-09-24T14:27:43.077Z,160547.75
2022-09-24T14:30:17.869Z,160581.22
2022-09-24T14:32:46.170Z,160574.53
2022-09-24T14:35:18.755Z,160579.84
2022-09-24T14:37:50.395Z,160587.94
2022-09-24T14:40:21.870Z,160599.94
2022-09-24T14:42:57.660Z,160583.88
2022-09-24T14:45:34.779Z,160578.50
2022-09-24T14:48:25.258Z,160595.94
2022-09-24T14:50:53.797Z,160607.97
2022-09-24T14:53:22.667Z,160630.75
2022-09-24T14:55:51.020Z,160637.47
2022-09-24T14:58:36.675Z,160661.53
2022-09-24T15:01:17.924Z,160669.56
2022-09-24T15:03:51.810Z,160688.38
2022-09-24T15:06:32.724Z,160669.56
2022-09-24T15:09:02.924Z,160673.59
2022-09-24T15:11:34.974Z,160680.31
2022-09-24T15:14:16.422Z,160695.09
2022-09-24T15:16:47.187Z,160681.63
2022-09-24T15:19:31.288Z,160687.06
2022-09-24T15:22:00.402Z,160696.41
2022-09-24T15:24:29.921Z,160621.34
2022-09-24T15:27:01.498Z,160633.44
2022-09-24T15:29:30.140Z,160626.72
2022-09-24T15:31:59.465Z,160614.66
2022-09-24T15:34:29.255Z,160614.66
2022-09-24T15:36:59.786Z,160601.28
2022-09-24T15:39:29.252Z,160598.59
2022-09-24T15:41:57.187Z,160550.41
2022-09-24T15:44:32.883Z,160482.16
2022-09-24T15:47:02.119Z,160388.44
2022-09-24T15:49:30.182Z,160337.56
2022-09-24T15:52:18.563Z,160288.06
2022-09-24T15:54:47.331Z,160250.63
2022-09-24T15:57:15.401Z,160199.81
2022-09-24T15:59:43.384Z,160150.31
2022-09-24T16:02:33.197Z,160060.72
2022-09-24T16:05:04.087Z,159969.75
2022-09-24T16:07:33.334Z,159918.97
2022-09-24T16:10:02.197Z,159889.56
2022-09-24T16:12:30.574Z,159841.44
2022-09-24T16:15:01.228Z,159806.69
2022-09-24T16:17:31.228Z,159754.59
2022-09-24T16:19:59.413Z,159743.91
2022-09-24T16:22:28.283Z,159703.81
2022-09-24T16:24:56.272Z,159675.69
2022-09-24T16:27:24.387Z,159640.97
2022-09-24T16:29:52.955Z,159606.25
2022-09-24T16:32:20.967Z,159560.84
2022-09-24T16:34:49.343Z,159523.50
2022-09-24T16:37:18.854Z,159482.09
2022-09-24T16:39:47.981Z,159440.69
2022-09-24T16:42:16.165Z,159401.97
2022-09-24T16:44:44.757Z,159371.28
2022-09-24T16:47:17.212Z,159333.94
2022-09-24T16:49:46.447Z,159293.88
2022-09-24T16:52:14.278Z,159285.88
2022-09-24T16:54:42.844Z,159257.81
2022-09-24T16:57:11.485Z,159231.09
2022-09-24T16:59:40.168Z,159207.09
2022-09-24T17:02:11.824Z,159179.09
2022-09-24T17:04:41.719Z,159160.41
2022-09-24T17:07:10.989Z,159139.06
2022-09-24T17:09:58.756Z,159133.72
2022-09-24T17:12:28.573Z,159119.03
2022-09-24T17:14:57.791Z,159101.72
2022-09-24T17:17:26.996Z,159077.69
2022-09-24T17:19:55.671Z,159039.03
2022-09-24T17:22:23.586Z,159040.38
2022-09-24T17:24:53.174Z,159016.38
2022-09-24T17:27:21.704Z,159008.38
2022-09-24T17:29:49.619Z,159004.38
2022-09-24T17:32:18.109Z,158989.69
2022-09-24T17:34:46.755Z,158976.38
2022-09-24T17:37:14.614Z,158984.34
2022-09-24T17:39:42.950Z,158960.38
2022-09-24T17:42:11.889Z,158937.72
2022-09-24T17:44:40.196Z,158928.34
2022-09-24T17:47:08.243Z,158908.34
2022-09-24T17:49:37.798Z,158899.03
2022-09-24T17:52:06.212Z,158901.69
2022-09-24T17:54:34.928Z,158911.06
2022-09-24T17:57:03.397Z,158893.69
2022-09-24T17:59:31.454Z,158892.38
2022-09-24T18:02:00.525Z,158895.03
2022-09-24T18:04:31.440Z,158891.06
2022-09-24T18:06:59.611Z,158871.06
2022-09-24T18:09:27.512Z,158879.03
2022-09-24T18:11:57.186Z,158871.06
2022-09-24T18:14:26.627Z,158872.38
2022-09-24T18:16:55.025Z,158867.09
2022-09-24T18:19:23.781Z,158853.75
2022-09-24T18:21:52.584Z,158853.75
2022-09-24T18:24:20.978Z,158831.03
2022-09-24T18:26:51.950Z,158815.06
2022-09-24T18:29:22.362Z,158777.72
2022-09-24T18:31:52.057Z,158764.38
2022-09-24T18:34:21.408Z,158779.03
2022-09-24T18:36:49.304Z,158760.38
2022-09-24T18:39:23.691Z,158739.03
2022-09-24T18:41:54.311Z,158725.72
2022-09-24T18:44:22.938Z,158728.41
2022-09-24T18:46:51.488Z,158716.41
2022-09-24T18:49:20.166Z,158712.44
2022-09-24T18:51:49.732Z,158693.78
2022-09-24T18:54:19.465Z,158644.47
2022-09-24T18:56:48.002Z,158632.47
2022-09-24T18:59:19.209Z,158625.81
2022-09-24T19:01:51.247Z,158624.50
2022-09-24T19:04:20.577Z,158613.84
2022-09-24T19:06:50.801Z,158608.53
2022-09-24T19:09:21.041Z,158605.81
2022-09-24T19:11:49.585Z,158600.53
2022-09-24T19:14:18.673Z,158608.53
2022-09-24T19:16:47.775Z,158600.53
2022-09-24T19:19:16.793Z,158585.88
2022-09-24T19:21:45.408Z,158524.63
2022-09-24T19:24:13.674Z,158552.59
2022-09-24T19:26:42.197Z,158543.22
2022-09-24T19:29:10.939Z,158559.25
2022-09-24T19:31:43.097Z,158551.25
2022-09-24T19:34:13.348Z,158540.59
2022-09-24T19:36:45.227Z,158519.28
2022-09-24T19:39:16.329Z,158541.91
2022-09-24T19:41:47.115Z,158520.59
2022-09-24T19:44:17.030Z,158531.28
2022-09-24T19:46:45.743Z,158507.28
2022-09-24T19:49:14.739Z,158513.94
2022-09-24T19:51:43.639Z,158500.63
2022-09-24T19:54:12.228Z,158492.63
2022-09-24T19:56:40.698Z,158487.34
2022-09-24T19:59:10.517Z,158475.34
2022-09-24T20:01:38.985Z,158467.38
2022-09-24T20:04:08.160Z,158448.72
2022-09-24T20:06:40.179Z,158420.75
2022-09-24T20:09:08.688Z,158416.72
2022-09-24T20:11:38.953Z,158406.09
2022-09-24T20:14:09.864Z,158380.78
2022-09-24T20:16:38.508Z,158383.50
2022-09-24T20:19:07.001Z,158374.13
2022-09-24T20:21:35.699Z,158367.47
2022-09-24T20:24:05.317Z,158331.53
2022-09-24T20:26:52.597Z,158348.88
2022-09-24T20:29:23.243Z,158342.22
2022-09-24T20:31:55.900Z,158338.19
2022-09-24T20:34:32.361Z,158328.91
2022-09-24T20:37:05.967Z,158324.88
2022-09-24T20:39:34.592Z,158315.59
2022-09-24T20:42:04.198Z,158308.94
2022-09-24T20:44:34.867Z,158292.97
2022-09-24T20:47:03.498Z,158290.28
2022-09-24T20:49:33.403Z,158285.00
2022-09-24T20:52:03.790Z,158275.66
2022-09-24T20:54:34.387Z,158277.03
2022-09-24T20:57:03.266Z,158277.03
2022-09-24T20:59:32.523Z,158258.38
2022-09-24T21:02:00.658Z,158229.09
2022-09-24T21:04:29.120Z,158227.78
2022-09-24T21:06:57.798Z,158227.78
2022-09-24T21:09:26.105Z,158243.75
2022-09-24T21:11:55.033Z,158234.44
2022-09-24T21:14:23.530Z,158243.75
2022-09-24T21:16:55.383Z,158247.69
2022-09-24T21:19:25.637Z,158239.72
2022-09-24T21:21:54.476Z,158238.41
2022-09-24T21:24:26.365Z,158239.72
2022-09-24T21:26:59.766Z,158243.75
2022-09-24T21:29:28.215Z,158242.41
2022-09-24T21:31:56.097Z,158235.75
2022-09-24T21:34:30.006Z,158233.06
2022-09-24T21:37:01.320Z,158226.41
2022-09-24T21:39:32.885Z,158219.75
2022-09-24T21:42:02.338Z,158217.13
2022-09-24T21:44:34.459Z,158202.47
2022-09-24T21:47:02.660Z,158197.16
2022-09-24T21:49:34.436Z,158194.50
2022-09-24T21:52:05.704Z,158174.53
2022-09-24T21:54:35.427Z,158139.91
2022-09-24T21:57:03.219Z,158115.97
2022-09-24T21:59:49.656Z,158102.66
2022-09-24T22:02:19.230Z,158078.69
2022-09-24T22:04:48.162Z,158057.41
2022-09-24T22:07:17.866Z,158042.81
2022-09-24T22:09:46.227Z,158020.19
2022-09-24T22:12:14.176Z,158018.88
2022-09-24T22:14:42.171Z,158005.59
2022-09-24T22:17:11.016Z,158008.22
2022-09-24T22:19:38.863Z,157990.97
2022-09-24T22:22:07.491Z,157993.59
2022-09-24T22:24:37.042Z,157988.28
2022-09-24T22:27:05.123Z,157980.28
2022-09-24T22:29:33.613Z,157956.38
2022-09-24T22:32:03.410Z,157959.03
2022-09-24T22:34:49.999Z,157952.38
2022-09-24T22:37:18.253Z,157943.09
2022-09-24T22:39:46.646Z,157928.47
2022-09-24T22:42:15.235Z,157919.19
2022-09-24T22:44:44.010Z,157917.81
2022-09-24T22:47:11.727Z,157916.47
2022-09-24T22:49:39.599Z,157908.50
2022-09-24T22:52:07.970Z,157900.53
2022-09-24T22:54:36.143Z,157900.53
2022-09-24T22:57:04.491Z,157893.91
2022-09-24T22:59:33.154Z,157901.88
2022-09-24T23:02:01.365Z,157903.19
2022-09-24T23:04:30.282Z,157891.25
2022-09-24T23:06:58.806Z,157909.84
2022-09-24T23:09:27.292Z,157912.53
2022-09-24T23:11:56.993Z,157896.53
2022-09-24T23:14:25.790Z,157931.09
2022-09-24T23:16:54.145Z,157937.75
2022-09-24T23:19:22.370Z,157936.44
2022-09-24T23:21:50.666Z,157956.38
2022-09-24T23:24:20.690Z,157947.09
2022-09-24T23:26:48.904Z,157959.03
2022-09-24T23:29:17.259Z,157975.00
2022-09-24T23:31:46.064Z,157984.31
2022-09-24T23:34:14.819Z,157992.28
2022-09-24T23:36:45.477Z,157978.97
2022-09-24T23:39:14.396Z,157971.00
2022-09-24T23:41:42.679Z,157976.34
2022-09-24T23:44:11.576Z,157971.00
2022-09-24T23:46:40.115Z,157973.66
2022-09-24T23:49:08.015Z,157969.69
2022-09-24T23:51:36.728Z,157964.34
2022-09-24T23:54:05.303Z,157952.38
2022-09-24T23:56:33.893Z,157953.75
2022-09-24T23:59:02.229Z,157935.13
